Time;durP1;ratioP1;P1;durP2;ratioP2;P2;SDS_P1;SDS_P2;PMS_P1;PMS_P2;Temp;Humidity;BMP_temperature;BMP_pressure;BME280_temperature;BME280_humidity;BME280_pressure;Samples;Min_cycle;Max_cycle;Signal;HPM_P1;HPM_P2
2022/10/28 00:01:11;;;;;;;1999.90;999.90;;;17.70;99.90;;;;;;4879153;29;20510;-87
2022/10/28 00:03:43;;;;;;;1999.90;999.90;;;17.70;99.90;;;;;;4862855;29;20053;-86
2022/10/28 00:06:13;;;;;;;1999.90;999.90;;;17.70;99.90;;;;;;4862556;29;20440;-86
2022/10/28 00:08:40;;;;;;;1999.90;999.90;;;17.70;99.90;;;;;;4878224;29;20675;-86
2022/10/28 00:11:15;;;;;;;1999.90;999.90;;;17.70;99.90;;;;;;4861944;29;20053;-86
2022/10/28 00:13:42;;;;;;;1999.90;999.90;;;17.80;99.90;;;;;;4878068;29;20104;-86
2022/10/28 00:16:21;;;;;;;1999.90;999.90;;;17.80;99.90;;;;;;4878895;29;20053;-91
2022/10/28 00:18:47;;;;;;;1999.90;999.90;;;17.90;99.90;;;;;;4877792;29;20091;-86
2022/10/28 00:21:16;;;;;;;1999.90;999.90;;;17.90;99.90;;;;;;4877348;29;20084;-86
2022/10/28 00:23:42;;;;;;;1999.90;999.90;;;18.00;99.90;;;;;;4878141;29;20056;-86
2022/10/28 00:26:14;;;;;;;1999.90;999.90;;;18.00;68.50;;;;;;4878653;29;20049;-87
2022/10/28 00:28:48;;;;;;;1999.90;999.90;;;18.00;58.60;;;;;;4877753;29;20056;-86
2022/10/28 00:31:16;;;;;;;1999.90;999.90;;;18.00;29.80;;;;;;4876460;29;20049;-86
2022/10/28 00:33:42;;;;;;;1999.90;999.90;;;18.00;95.70;;;;;;4860689;29;20068;-86
2022/10/28 00:36:23;;;;;;;1999.90;999.90;;;18.00;1.00;;;;;;4876598;29;20049;-86
2022/10/28 00:38:50;;;;;;;1999.90;999.90;;;18.00;1.00;;;;;;4862199;29;20048;-86
2022/10/28 00:41:19;;;;;;;1999.90;999.90;;;18.00;1.00;;;;;;4878572;29;20057;-86
2022/10/28 00:43:48;;;;;;;1999.90;999.90;;;18.10;1.00;;;;;;4879044;29;20213;-87
2022/10/28 00:46:20;;;;;;;1999.90;999.90;;;18.10;1.00;;;;;;4862561;29;20482;-86
2022/10/28 00:48:49;;;;;;;1999.90;999.90;;;18.10;99.90;;;;;;4878486;29;20056;-86
2022/10/28 00:51:17;;;;;;;1999.90;999.90;;;18.10;99.90;;;;;;4860917;29;20126;-86
2022/10/28 00:53:47;;;;;;;1999.90;999.90;;;18.10;99.90;;;;;;4877904;29;20398;-86
2022/10/28 00:56:15;;;;;;;1999.90;999.90;;;18.10;99.90;;;;;;4878520;29;20053;-86
2022/10/28 00:58:41;;;;;;;1999.90;999.90;;;18.10;99.90;;;;;;4878159;29;20052;-86
2022/10/28 01:01:07;;;;;;;1999.90;999.90;;;18.10;99.90;;;;;;4878078;29;20064;-86
2022/10/28 01:03:32;;;;;;;1999.90;999.90;;;18.10;99.90;;;;;;4878084;29;20060;-86
2022/10/28 01:06:00;;;;;;;1999.90;999.90;;;18.00;99.90;;;;;;4878007;29;20057;-87
2022/10/28 01:08:26;;;;;;;1999.90;999.90;;;18.00;99.90;;;;;;4861757;29;20116;-87
2022/10/28 01:10:57;;;;;;;1999.90;999.90;;;18.00;99.90;;;;;;4860874;29;20053;-86
2022/10/28 01:13:51;;;;;;;1999.90;999.90;;;18.00;99.90;;;;;;4877561;29;20554;-88
2022/10/28 01:16:32;;;;;;;1999.90;999.90;;;18.00;99.90;;;;;;4860814;29;20132;-86
2022/10/28 01:19:18;;;;;;;1999.90;999.90;;;17.90;99.90;;;;;;4877376;29;20513;-86
2022/10/28 01:22:02;;;;;;;1999.90;999.90;;;17.80;99.90;;;;;;4876300;29;20051;-85
2022/10/28 01:25:02;;;;;;;1999.90;999.90;;;17.80;99.90;;;;;;4877301;29;20537;-86
2022/10/28 01:27:30;;;;;;;;;;;17.80;1.00;;;;;;4861970;29;20061;-86
2022/10/28 01:30:02;;;;;;;1999.90;999.90;;;17.80;1.00;;;;;;4860162;29;19924;-87
2022/10/28 01:32:34;;;;;;;1999.90;999.90;;;17.80;1.00;;;;;;4876545;29;20061;-87
2022/10/28 01:35:29;;;;;;;1999.90;999.90;;;17.90;99.90;;;;;;4860364;29;20056;-87
2022/10/28 01:38:09;;;;;;;1999.90;999.90;;;17.80;87.70;;;;;;4875349;29;20562;-87
2022/10/28 01:40:51;;;;;;;1999.90;999.90;;;17.90;39.80;;;;;;4876640;29;20438;-87
2022/10/28 01:43:27;;;;;;;1999.90;999.90;;;17.90;29.40;;;;;;4875548;29;20045;-87
2022/10/28 01:46:09;;;;;;;1999.90;999.90;;;17.90;1.00;;;;;;4876814;29;20056;-87
2022/10/28 01:48:43;;;;;;;1999.90;999.90;;;17.80;1.00;;;;;;4877632;29;20482;-87
2022/10/28 01:51:19;;;;;;;1999.90;999.90;;;17.80;1.00;;;;;;4875276;29;20068;-87
2022/10/28 01:53:48;;;;;;;1999.90;999.90;;;17.80;1.00;;;;;;4877573;29;20156;-87
2022/10/28 01:56:18;;;;;;;1999.90;999.90;;;17.70;1.00;;;;;;4877577;29;20052;-87
2022/10/28 01:58:44;;;;;;;1999.90;999.90;;;17.70;1.00;;;;;;4879156;29;20096;-87
2022/10/28 02:01:10;;;;;;;1999.90;999.90;;;17.80;1.00;;;;;;4885636;29;20072;-86
2022/10/28 02:03:36;;;;;;;1999.90;999.90;;;17.80;99.90;;;;;;4893426;29;20132;-87
2022/10/28 02:06:06;;;;;;;1999.90;999.90;;;17.90;99.90;;;;;;4890884;29;20140;-86
2022/10/28 02:08:59;;;;;;;1999.90;999.90;;;17.90;83.00;;;;;;4889313;29;20074;-87
2022/10/28 02:11:40;;;;;;;1999.90;999.90;;;17.80;1.00;;;;;;4872649;29;20053;-87
2022/10/28 02:14:13;;;;;;;1999.90;999.90;;;17.80;75.10;;;;;;4884940;29;20280;-87
2022/10/28 02:17:16;;;;;;;1999.90;999.90;;;18.00;99.90;;;;;;4886996;29;20049;-87
2022/10/28 02:20:06;;;;;;;1999.90;999.90;;;17.90;99.90;;;;;;4891400;29;20077;-87
2022/10/28 02:22:41;;;;;;;1999.90;999.90;;;18.00;99.90;;;;;;4889462;29;20057;-86
2022/10/28 02:25:12;;;;;;;1999.90;999.90;;;18.00;98.30;;;;;;4883398;29;20490;-86
2022/10/28 02:27:41;;;;;;;1999.90;999.90;;;18.00;1.00;;;;;;4885031;29;20053;-87
2022/10/28 02:30:13;;;;;;;1999.90;999.90;;;18.00;1.00;;;;;;4886716;29;20459;-86
2022/10/28 02:32:44;;;;;;;1999.90;999.90;;;18.00;1.00;;;;;;4881281;29;20059;-87
2022/10/28 02:35:16;;;;;;;1999.90;999.90;;;18.00;99.90;;;;;;4880045;29;20053;-87
2022/10/28 02:37:44;;;;;;;1999.90;999.90;;;18.00;1.00;;;;;;4881752;29;20124;-87
2022/10/28 02:40:17;;;;;;;1999.90;999.90;;;18.10;1.00;;;;;;4880327;29;20072;-87
2022/10/28 02:43:05;;;;;;;1999.90;999.90;;;18.00;1.00;;;;;;4864438;29;20491;-87
2022/10/28 02:45:40;;;;;;;1999.90;999.90;;;18.00;99.90;;;;;;4881292;29;20116;-87
2022/10/28 02:48:43;;;;;;;1999.90;999.90;;;18.00;99.90;;;;;;4882094;29;20551;-86
2022/10/28 02:51:17;;;;;;;1999.90;999.90;;;17.90;1.00;;;;;;4877739;29;20480;-86
2022/10/28 02:53:58;;;;;;;1999.90;999.90;;;17.90;99.90;;;;;;4865256;29;20144;-86
2022/10/28 02:56:24;;;;;;;1999.90;999.90;;;17.90;1.00;;;;;;4880684;29;20053;-87
2022/10/28 02:58:50;;;;;;;1999.90;999.90;;;17.90;1.00;;;;;;4880736;29;20112;-87
2022/10/28 03:01:16;;;;;;;1999.90;999.90;;;17.90;1.00;;;;;;4864876;29;20112;-87
2022/10/28 03:03:42;;;;;;;1999.90;999.90;;;17.80;1.00;;;;;;4865708;29;20052;-86
2022/10/28 03:06:08;;;;;;;1999.90;999.90;;;17.80;1.00;;;;;;4881121;29;20467;-86
2022/10/28 03:08:33;;;;;;;1999.90;999.90;;;17.80;6.20;;;;;;4880960;29;20057;-87
2022/10/28 03:10:59;;;;;;;1999.90;999.90;;;17.80;24.50;;;;;;4879021;29;20482;-87
2022/10/28 03:13:25;;;;;;;1999.90;999.90;;;17.70;55.10;;;;;;4848260;29;20481;-87
2022/10/28 03:15:50;;;;;;;1999.90;999.90;;;17.70;95.60;;;;;;4878109;29;20052;-87
2022/10/28 03:18:16;;;;;;;1999.90;999.90;;;17.70;94.50;;;;;;4879761;29;20127;-87
2022/10/28 03:20:42;;;;;;;1999.90;999.90;;;17.70;99.90;;;;;;4878670;29;20059;-87
2022/10/28 03:23:07;;;;;;;1999.90;999.90;;;17.70;99.90;;;;;;4878628;29;20059;-87
2022/10/28 03:25:33;;;;;;;1999.90;999.90;;;17.70;99.90;;;;;;4878439;29;20041;-87
2022/10/28 03:27:59;;;;;;;1999.90;999.90;;;17.70;99.90;;;;;;4878038;29;20086;-87
2022/10/28 03:30:24;;;;;;;1999.90;999.90;;;17.70;99.90;;;;;;4877956;29;20093;-87
2022/10/28 03:32:50;;;;;;;1999.90;999.90;;;17.70;99.90;;;;;;4878594;29;20053;-87
2022/10/28 03:35:15;;;;;;;1999.90;999.90;;;17.70;99.90;;;;;;4861590;29;20120;-87
2022/10/28 03:37:42;;;;;;;1999.90;999.90;;;17.70;99.90;;;;;;4877426;29;20060;-87
2022/10/28 03:40:09;;;;;;;1999.90;999.90;;;17.60;99.90;;;;;;4878753;29;20048;-87
2022/10/28 03:42:35;;;;;;;1999.90;999.90;;;17.60;99.90;;;;;;4879629;29;20095;-87
2022/10/28 03:45:00;;;;;;;1999.90;999.90;;;17.60;99.90;;;;;;4862397;29;20088;-87
2022/10/28 03:47:26;;;;;;;1999.90;999.90;;;17.60;99.90;;;;;;4879261;29;20092;-87
2022/10/28 03:49:52;;;;;;;1999.90;999.90;;;17.50;99.90;;;;;;4878012;29;20085;-87
2022/10/28 03:52:18;;;;;;;1999.90;999.90;;;17.50;99.90;;;;;;4879098;29;20320;-87
2022/10/28 03:54:44;;;;;;;1999.90;999.90;;;17.40;99.90;;;;;;4878122;29;20128;-87
2022/10/28 03:57:09;;;;;;;1999.90;999.90;;;17.40;99.90;;;;;;4861734;29;20140;-87
2022/10/28 03:59:35;;;;;;;1892.35;771.53;;;17.40;99.90;;;;;;4878306;29;20168;-87
2022/10/28 04:02:01;;;;;;;1999.90;999.90;;;17.30;99.90;;;;;;4862055;29;20696;-87
2022/10/28 04:04:26;;;;;;;1999.90;999.90;;;17.40;1.00;;;;;;4877650;29;20061;-87
2022/10/28 04:06:52;;;;;;;1999.90;999.90;;;17.30;1.00;;;;;;4877382;29;20072;-87
2022/10/28 04:09:17;;;;;;;1999.90;999.90;;;17.30;1.00;;;;;;4879569;29;20489;-87
2022/10/28 04:11:48;;;;;;;1999.90;999.90;;;17.30;1.00;;;;;;4863363;29;20200;-87
2022/10/28 04:14:13;;;;;;;1813.28;761.08;;;17.30;30.10;;;;;;4879839;29;20048;-87
2022/10/28 04:16:39;;;;;;;1999.90;999.90;;;17.40;99.90;;;;;;4879891;29;20053;-87
2022/10/28 04:19:05;;;;;;;1741.75;757.45;;;17.30;99.90;;;;;;4877955;29;20060;-87
2022/10/28 04:21:30;;;;;;;1999.90;999.90;;;17.30;99.90;;;;;;4862150;29;20114;-87
2022/10/28 04:23:56;;;;;;;1999.90;999.90;;;17.20;99.90;;;;;;4862834;29;20049;-87
2022/10/28 04:26:22;;;;;;;1999.90;999.90;;;17.20;99.90;;;;;;4878010;29;20045;-87
2022/10/28 04:28:47;;;;;;;1999.90;999.90;;;17.20;99.90;;;;;;4862835;29;20049;-87
2022/10/28 04:31:13;;;;;;;1999.90;999.90;;;17.20;99.90;;;;;;4879036;29;20120;-87
2022/10/28 04:33:39;;;;;;;1999.90;999.90;;;17.20;99.90;;;;;;4879822;29;20056;-86
2022/10/28 04:36:05;;;;;;;1999.90;999.90;;;17.20;99.90;;;;;;4862671;29;20109;-87
2022/10/28 04:38:30;;;;;;;1999.90;999.90;;;17.10;99.90;;;;;;4878405;29;20049;-87
2022/10/28 04:40:56;;;;;;;1999.90;999.90;;;17.10;99.90;;;;;;4880024;29;20051;-87
2022/10/28 04:43:22;;;;;;;1999.90;999.90;;;17.10;1.00;;;;;;4879773;29;20410;-86
2022/10/28 04:45:47;;;;;;;1999.90;999.90;;;17.10;1.00;;;;;;4880151;29;20045;-87
2022/10/28 04:48:13;;;;;;;1999.90;999.90;;;17.20;1.00;;;;;;4862954;29;20135;-86
2022/10/28 04:50:39;;;;;;;1999.90;999.90;;;;;;;;;;4862216;29;20084;-87
2022/10/28 04:53:05;;;;;;;1999.90;999.90;;;17.10;1.00;;;;;;4880010;29;20060;-86
2022/10/28 04:55:31;;;;;;;1527.78;516.35;;;17.20;17.60;;;;;;4879771;29;20045;-86
2022/10/28 04:57:59;;;;;;;1999.90;999.90;;;17.20;99.90;;;;;;4878986;29;20078;-86
2022/10/28 05:00:25;;;;;;;;;;;17.20;99.90;;;;;;4878164;29;20087;-85
2022/10/28 05:02:51;;;;;;;1999.90;999.90;;;17.10;99.90;;;;;;4877989;29;20018;-87
2022/10/28 05:05:17;;;;;;;1999.90;999.90;;;17.10;99.90;;;;;;4879063;29;20169;-87
2022/10/28 05:07:43;;;;;;;1813.25;766.03;;;17.10;99.90;;;;;;4863358;29;20108;-87
2022/10/28 05:10:11;;;;;;;1999.90;999.90;;;17.10;99.90;;;;;;4861931;29;20052;-88
2022/10/28 05:12:40;;;;;;;1999.90;999.90;;;17.00;99.90;;;;;;4878310;29;20383;-87
2022/10/28 05:15:06;;;;;;;1999.90;999.90;;;17.00;99.90;;;;;;4878458;29;20177;-88
2022/10/28 05:17:32;;;;;;;1999.90;999.90;;;17.00;99.90;;;;;;4878556;29;20069;-88
2022/10/28 05:19:58;;;;;;;1870.07;794.47;;;17.00;99.90;;;;;;4876213;29;20112;-88
2022/10/28 05:22:23;;;;;;;1999.90;999.90;;;17.00;99.90;;;;;;4877578;29;20045;-88
2022/10/28 05:24:49;;;;;;;1999.90;999.90;;;17.00;99.90;;;;;;4878680;29;20524;-88
2022/10/28 05:27:15;;;;;;;1824.72;771.03;;;17.00;1.00;;;;;;4862324;29;20059;-88
2022/10/28 05:29:41;;;;;;;1999.90;806.53;;;16.90;1.00;;;;;;4862462;29;20048;-88
2022/10/28 05:32:06;;;;;;;1902.07;780.13;;;16.90;1.00;;;;;;4862165;29;20535;-85
2022/10/28 05:34:32;;;;;;;1999.90;786.63;;;16.90;1.00;;;;;;4876674;29;20037;-85
2022/10/28 05:36:58;;;;;;;1999.90;999.90;;;16.90;1.00;;;;;;4878415;29;20427;-84
2022/10/28 05:39:23;;;;;;;1623.93;148.18;;;17.00;27.40;;;;;;4878693;29;20395;-84
2022/10/28 05:41:49;;;;;;;1999.90;999.90;;;17.00;99.90;;;;;;4861738;29;20402;-85
2022/10/28 05:44:15;;;;;;;1999.90;999.90;;;17.00;99.90;;;;;;4879157;29;20471;-84
2022/10/28 05:46:40;;;;;;;1999.90;999.90;;;17.00;99.90;;;;;;4862352;29;20419;-84
2022/10/28 05:49:06;;;;;;;1999.90;999.90;;;17.00;99.90;;;;;;4878046;29;20053;-84
2022/10/28 05:51:31;;;;;;;1999.90;999.90;;;17.00;99.90;;;;;;4861374;29;20379;-84
2022/10/28 05:53:57;;;;;;;1841.95;764.22;;;17.00;99.90;;;;;;4862479;29;20053;-84
2022/10/28 05:56:23;;;;;;;1845.40;766.63;;;17.00;1.00;;;;;;4861838;29;20119;-84
2022/10/28 05:58:48;;;;;;;1999.90;999.90;;;17.00;1.00;;;;;;4878403;29;20049;-84
2022/10/28 06:01:14;;;;;;;1999.90;999.90;;;17.20;1.00;;;;;;4876583;29;20395;-86
2022/10/28 06:03:40;;;;;;;1999.90;999.90;;;17.10;1.00;;;;;;4877615;29;20057;-84
2022/10/28 06:06:06;;;;;;;1999.90;999.90;;;17.10;46.80;;;;;;4878453;29;20398;-84
2022/10/28 06:08:32;;;;;;;1819.97;780.60;;;17.10;99.90;;;;;;4861202;29;20081;-85
2022/10/28 06:10:57;;;;;;;1999.90;999.90;;;17.20;99.90;;;;;;4861845;29;20108;-84
2022/10/28 06:13:23;;;;;;;1999.90;999.90;;;17.30;99.90;;;;;;4861660;29;20049;-84
2022/10/28 06:15:54;;;;;;;1999.90;809.15;;;17.30;99.90;;;;;;4878285;29;20132;-85
2022/10/28 06:18:20;;;;;;;1999.90;254.13;;;17.30;99.90;;;;;;4861524;29;20574;-84
2022/10/28 06:20:57;;;;;;;1999.90;999.90;;;17.30;99.90;;;;;;4878162;29;20093;-84
2022/10/28 06:23:24;;;;;;;1901.05;776.92;;;17.20;99.90;;;;;;4877993;29;20053;-84
2022/10/28 06:25:51;;;;;;;1634.15;92.63;;;17.20;1.00;;;;;;4878294;29;20056;-84
2022/10/28 06:28:16;;;;;;;1999.90;999.90;;;17.30;1.00;;;;;;4878237;29;20127;-84
2022/10/28 06:30:42;;;;;;;1999.90;999.90;;;17.30;1.00;;;;;;4878272;29;20136;-81
2022/10/28 06:33:08;;;;;;;1999.90;999.90;;;17.30;1.00;;;;;;4877917;29;20128;-85
2022/10/28 06:35:33;;;;;;;1999.90;999.90;;;17.30;1.00;;;;;;4845905;29;20045;-85
2022/10/28 06:37:59;;;;;;;1984.60;816.97;;;17.40;8.40;;;;;;4862505;29;20064;-85
2022/10/28 06:40:25;;;;;;;1999.90;999.90;;;17.50;37.70;;;;;;4847098;29;20140;-84
2022/10/28 06:43:02;;;;;;;1869.32;769.30;;;17.50;54.20;;;;;;4877691;29;20112;-84
2022/10/28 06:45:29;;;;;;;1999.90;999.90;;;17.40;69.20;;;;;;4878126;29;20495;-84
2022/10/28 06:47:57;;;;;;;1775.50;560.05;;;17.50;99.90;;;;;;4878746;29;20052;-84
2022/10/28 06:50:23;;;;;;;1999.90;999.90;;;17.50;99.90;;;;;;4861469;29;20059;-85
2022/10/28 06:52:49;;;;;;;1999.90;999.90;;;17.60;99.90;;;;;;4878419;29;20091;-84
2022/10/28 06:55:15;;;;;;;1787.15;785.38;;;17.60;99.90;;;;;;4878184;29;20118;-84
2022/10/28 06:57:40;;;;;;;1999.90;214.07;;;17.60;99.90;;;;;;4878300;29;20053;-84
2022/10/28 07:00:07;;;;;;;1775.78;758.75;;;17.70;99.90;;;;;;4878472;29;20084;-84
2022/10/28 07:02:33;;;;;;;1644.45;754.53;;;17.70;99.90;;;;;;4881507;29;20064;-84
2022/10/28 07:04:58;;;;;;;1999.90;999.90;;;17.80;99.90;;;;;;4881349;29;20041;-84
2022/10/28 07:07:24;;;;;;;1786.55;538.80;;;17.80;99.90;;;;;;4881282;29;20053;-85
2022/10/28 07:09:49;;;;;;;1999.90;999.90;;;17.80;99.90;;;;;;4865323;29;20418;-84
2022/10/28 07:12:15;;;;;;;1999.90;999.90;;;17.80;90.50;;;;;;4865355;29;20053;-84
2022/10/28 07:14:41;;;;;;;1768.85;762.60;;;17.90;86.10;;;;;;4879893;29;20041;-84
2022/10/28 07:17:06;;;;;;;1731.88;759.47;;;18.00;56.30;;;;;;4880422;29;20577;-85
2022/10/28 07:19:32;;;;;;;1999.90;999.90;;;18.10;1.00;;;;;;4881108;29;20053;-84
2022/10/28 07:21:58;;;;;;;1999.90;999.90;;;18.10;1.00;;;;;;4881417;29;20069;-84
2022/10/28 07:24:23;;;;;;;1073.30;503.20;;;18.20;99.90;;;;;;4881254;29;20502;-84
2022/10/28 07:26:49;;;;;;;1999.90;999.90;;;18.20;99.90;;;;;;4864630;29;20057;-84
2022/10/28 07:29:15;;;;;;;1999.90;999.90;;;18.30;1.00;;;;;;4865059;29;20053;-84
2022/10/28 07:31:41;;;;;;;1999.90;999.90;;;18.40;1.00;;;;;;4881037;29;20048;-84
2022/10/28 07:34:07;;;;;;;1999.90;999.90;;;18.40;99.90;;;;;;4880139;29;20465;-85
2022/10/28 07:36:32;;;;;;;1999.90;999.90;;;18.50;99.90;;;;;;4880414;29;20108;-85
2022/10/28 07:38:58;;;;;;;1999.90;999.90;;;18.60;21.20;;;;;;4881195;29;20056;-84
2022/10/28 07:41:24;;;;;;;1999.90;999.90;;;18.60;1.00;;;;;;4881040;29;20506;-84
2022/10/28 07:43:50;;;;;;;1999.90;999.90;;;18.70;99.90;;;;;;4880799;29;20053;-84
2022/10/28 07:46:17;;;;;;;1999.90;999.90;;;18.80;99.90;;;;;;4879354;29;20049;-85
2022/10/28 07:48:43;;;;;;;1999.90;999.90;;;18.90;99.90;;;;;;4879769;29;20410;-84
2022/10/28 07:51:11;;;;;;;1999.90;999.90;;;18.90;99.90;;;;;;4864027;29;20060;-84
2022/10/28 07:53:37;;;;;;;1999.90;999.90;;;18.90;99.90;;;;;;4880672;29;20117;-84
2022/10/28 07:56:08;;;;;;;1999.90;999.90;;;19.00;99.90;;;;;;4880567;29;20093;-84
2022/10/28 07:58:35;;;;;;;1999.90;999.90;;;19.10;1.00;;;;;;4880686;29;20053;-84
2022/10/28 08:01:06;;;;;;;1999.90;999.90;;;19.20;1.00;;;;;;4879332;29;20060;-84
2022/10/28 08:03:32;;;;;;;1999.90;999.90;;;19.20;1.00;;;;;;4880390;29;20053;-85
2022/10/28 08:06:06;;;;;;;1999.90;999.90;;;19.30;99.90;;;;;;4863361;29;20139;-84
2022/10/28 08:08:32;;;;;;;1999.90;999.90;;;19.40;99.90;;;;;;4880422;29;20093;-84
2022/10/28 08:10:58;;;;;;;1999.90;999.90;;;19.40;99.90;;;;;;4848461;29;20052;-84
2022/10/28 08:13:23;;;;;;;1999.90;999.90;;;19.50;17.80;;;;;;4878576;29;20045;-85
2022/10/28 08:15:53;;;;;;;1999.90;999.90;;;19.60;1.00;;;;;;4878720;29;20135;-86
2022/10/28 08:18:20;;;;;;;1999.90;999.90;;;19.60;1.00;;;;;;4880433;29;20116;-84
2022/10/28 08:20:46;;;;;;;1999.90;999.90;;;19.70;99.90;;;;;;4879839;29;20056;-84
2022/10/28 08:23:11;;;;;;;1999.90;999.90;;;19.80;99.90;;;;;;4879479;29;20435;-84
2022/10/28 08:25:37;;;;;;;1999.90;999.90;;;19.80;99.90;;;;;;4863225;29;20164;-84
2022/10/28 08:28:03;;;;;;;1999.90;999.90;;;19.90;82.50;;;;;;4863590;29;20060;-84
2022/10/28 08:30:28;;;;;;;1999.90;999.90;;;19.90;64.00;;;;;;4880156;29;20060;-83
2022/10/28 08:32:54;;;;;;;1999.90;999.90;;;19.90;1.00;;;;;;4879918;29;20056;-84
2022/10/28 08:35:20;;;;;;;1999.90;999.90;;;20.00;1.00;;;;;;4863101;29;20053;-84
2022/10/28 08:37:51;;;;;;;1999.90;999.90;;;20.10;1.00;;;;;;4879569;29;20053;-83
2022/10/28 08:40:22;;;;;;;1999.90;999.90;;;20.20;1.00;;;;;;4879023;29;20049;-84
2022/10/28 08:42:54;;;;;;;1999.90;999.90;;;20.30;1.00;;;;;;4879508;29;20516;-85
2022/10/28 08:45:38;;;;;;;1999.90;999.90;;;20.40;99.90;;;;;;4878953;29;20053;-84
2022/10/28 08:48:20;;;;;;;1999.90;999.90;;;20.50;99.90;;;;;;4863259;29;20113;-84
2022/10/28 08:50:52;;;;;;;1999.90;999.90;;;20.50;99.90;;;;;;4879194;29;20056;-85
2022/10/28 08:53:25;;;;;;;1999.90;999.90;;;20.60;99.90;;;;;;4879606;29;20431;-85
2022/10/28 08:55:54;;;;;;;1999.90;999.90;;;20.60;99.90;;;;;;4879311;29;20045;-84
2022/10/28 08:58:29;;;;;;;1999.90;999.90;;;20.80;99.90;;;;;;4879633;29;20530;-85
2022/10/28 09:00:58;;;;;;;1999.90;999.90;;;20.80;97.50;;;;;;4879110;29;20371;-84
2022/10/28 09:03:40;;;;;;;1999.90;999.90;;;20.80;99.90;;;;;;4863113;29;20053;-84
2022/10/28 09:06:09;;;;;;;1999.90;999.90;;;20.90;20.60;;;;;;4862766;29;20534;-85
2022/10/28 09:08:38;;;;;;;1999.90;999.90;;;20.90;25.60;;;;;;4878749;29;20469;-85
2022/10/28 09:11:09;;;;;;;1999.90;999.90;;;21.00;35.30;;;;;;4878088;29;20057;-84
2022/10/28 09:13:50;;;;;;;1999.90;999.90;;;20.90;1.00;;;;;;4879483;29;20112;-84
2022/10/28 09:16:36;;;;;;;1999.90;999.90;;;21.00;1.00;;;;;;4879510;29;20053;-84
2022/10/28 09:19:14;;;;;;;1999.90;999.90;;;20.90;1.00;;;;;;4878488;29;20044;-84
2022/10/28 09:22:14;;;;;;;1999.90;999.90;;;20.90;1.00;;;;;;4878827;29;20117;-84
2022/10/28 09:25:00;;;;;;;1999.90;999.90;;;21.00;1.00;;;;;;4878651;29;20095;-84
2022/10/28 09:28:00;;;;;;;1999.90;999.90;;;21.00;1.00;;;;;;4879552;29;20057;-84
2022/10/28 09:30:25;;;;;;;;;;;21.00;1.00;;;;;;4880005;29;20064;-84
2022/10/28 09:33:02;;;;;;;1999.90;999.90;;;21.10;1.00;;;;;;4879104;29;19923;-85
2022/10/28 09:35:32;;;;;;;1999.90;999.90;;;21.10;1.00;;;;;;4878755;29;20104;-84
2022/10/28 09:38:24;;;;;;;1999.90;999.90;;;21.20;1.00;;;;;;4878914;29;20049;-84
2022/10/28 09:41:09;;;;;;;1999.90;999.90;;;21.20;1.00;;;;;;4862137;29;20514;-84
2022/10/28 09:43:41;;;;;;;1999.90;999.90;;;21.30;1.00;;;;;;4878022;29;20053;-84
2022/10/28 09:46:12;;;;;;;1999.90;999.90;;;21.30;99.90;;;;;;4877871;29;20051;-84
2022/10/28 09:48:54;;;;;;;1999.90;999.90;;;21.40;99.90;;;;;;4878066;29;20113;-84
2022/10/28 09:51:23;;;;;;;1999.90;999.90;;;21.40;99.90;;;;;;4877749;29;20147;-85
2022/10/28 09:53:56;;;;;;;1999.90;999.90;;;21.40;99.90;;;;;;4877992;29;20053;-84
2022/10/28 09:56:22;;;;;;;1999.90;999.90;;;21.50;99.90;;;;;;4877962;29;20049;-83
2022/10/28 09:58:48;;;;;;;1999.90;999.90;;;21.50;99.90;;;;;;4877128;29;20558;-84
2022/10/28 10:01:16;;;;;;;1999.90;999.90;;;21.50;99.90;;;;;;4877890;29;20149;-84
2022/10/28 10:03:44;;;;;;;1999.90;999.90;;;21.50;99.90;;;;;;4878027;29;20101;-89
2022/10/28 10:06:18;;;;;;;1999.90;999.90;;;21.50;99.90;;;;;;4878433;29;20399;-83
2022/10/28 10:08:44;;;;;;;1999.90;999.90;;;21.60;99.90;;;;;;4861738;29;20583;-84
2022/10/28 10:11:30;;;;;;;1999.90;999.90;;;21.50;99.90;;;;;;4878233;29;20135;-85
2022/10/28 10:13:58;;;;;;;1999.90;999.90;;;21.50;99.90;;;;;;4878756;29;20056;-85
2022/10/28 10:17:03;;;;;;;1999.90;999.90;;;21.50;99.90;;;;;;4878100;29;20104;-84
2022/10/28 10:19:59;;;;;;;1999.90;999.90;;;21.50;99.90;;;;;;4879572;29;20159;-85
2022/10/28 10:22:30;;;;;;;1999.90;999.90;;;21.50;99.90;;;;;;4862226;29;20113;-84
2022/10/28 10:24:56;;;;;;;1999.90;999.90;;;21.50;99.90;;;;;;4861692;29;20064;-85
2022/10/28 10:27:23;;;;;;;1999.90;999.90;;;21.60;99.90;;;;;;4862404;29;20053;-84
2022/10/28 10:29:51;;;;;;;1999.90;999.90;;;21.60;99.90;;;;;;4877367;29;20057;-85
2022/10/28 10:32:19;;;;;;;1999.90;999.90;;;21.70;99.90;;;;;;4877658;29;20053;-84
2022/10/28 10:35:00;;;;;;;1999.90;999.90;;;21.80;99.90;;;;;;4861139;29;20053;-83
2022/10/28 10:37:27;;;;;;;1999.90;999.90;;;21.90;99.90;;;;;;4881988;29;20415;-84
2022/10/28 10:40:18;;;;;;;1999.90;999.90;;;22.00;99.90;;;;;;4881674;29;20056;-85
2022/10/28 10:42:44;;;;;;;1999.90;999.90;;;22.00;99.90;;;;;;4882193;29;20077;-83
2022/10/28 10:45:25;;;;;;;1999.90;999.90;;;22.00;99.90;;;;;;4865213;29;20061;-84
2022/10/28 10:48:13;;;;;;;1999.90;999.90;;;22.10;99.90;;;;;;4881842;29;20128;-84
2022/10/28 10:50:41;;;;;;;1999.90;999.90;;;22.10;99.90;;;;;;4880218;29;20053;-84
2022/10/28 10:53:21;;;;;;;1999.90;999.90;;;22.10;99.90;;;;;;4881752;29;20067;-84
2022/10/28 10:55:56;;;;;;;1999.90;999.90;;;22.20;99.90;;;;;;4881322;29;20045;-85
2022/10/28 10:58:28;;;;;;;1999.90;999.90;;;22.20;99.90;;;;;;4882067;29;20056;-82
2022/10/28 11:00:56;;;;;;;1999.90;999.90;;;22.30;99.90;;;;;;4880930;29;20064;-82
2022/10/28 11:03:45;;;;;;;1999.90;999.90;;;22.40;99.90;;;;;;4880740;29;20052;-84
2022/10/28 11:06:20;;;;;;;1999.90;999.90;;;22.40;99.90;;;;;;4880894;29;20076;-85
2022/10/28 11:08:45;;;;;;;1999.90;999.90;;;22.50;99.90;;;;;;4881837;29;20282;-84
2022/10/28 11:11:30;;;;;;;1999.90;999.90;;;22.50;99.90;;;;;;4864684;29;20049;-83
2022/10/28 11:14:23;;;;;;;1999.90;999.90;;;22.50;99.90;;;;;;4865121;29;20487;-85
2022/10/28 11:16:54;;;;;;;1999.90;999.90;;;22.50;99.00;;;;;;4880967;29;20092;-84
2022/10/28 11:19:28;;;;;;;1999.90;999.90;;;22.50;99.90;;;;;;4882033;29;20056;-84
2022/10/28 11:22:25;;;;;;;1999.90;999.90;;;22.60;99.90;;;;;;4864209;29;20113;-84
2022/10/28 11:25:15;;;;;;;1999.90;999.90;;;22.70;99.90;;;;;;4880987;29;20563;-85
2022/10/28 11:28:04;;;;;;;1999.90;999.90;;;22.60;96.00;;;;;;4881705;29;20052;-85
2022/10/28 11:30:40;;;;;;;1999.90;999.90;;;22.70;97.70;;;;;;4881315;29;20097;-85
2022/10/28 11:33:47;;;;;;;1999.90;999.90;;;22.60;86.80;;;;;;4881609;29;20045;-84
2022/10/28 11:36:36;;;;;;;1999.90;999.90;;;22.60;94.90;;;;;;4863428;29;20099;-84
2022/10/28 11:39:13;;;;;;;1999.90;999.90;;;22.60;99.20;;;;;;4864371;29;20509;-85
2022/10/28 11:41:54;;;;;;;1999.90;999.90;;;22.60;93.80;;;;;;4881311;29;20088;-84
2022/10/28 11:44:42;;;;;;;1999.90;999.90;;;22.60;96.20;;;;;;4881148;29;20133;-84
2022/10/28 11:47:32;;;;;;;1999.90;999.90;;;22.60;89.40;;;;;;4880374;29;20479;-84
2022/10/28 11:50:25;;;;;;;1999.90;999.90;;;22.60;86.80;;;;;;4879469;29;20057;-84
2022/10/28 11:53:51;;;;;;;1999.90;999.90;;;22.60;86.20;;;;;;4880878;29;20064;-84
2022/10/28 11:56:28;;;;;;;1999.90;999.90;;;22.60;95.30;;;;;;4862831;29;20053;-84
2022/10/28 11:59:10;;;;;;;1999.90;999.90;;;22.70;94.90;;;;;;4878251;29;20060;-87
2022/10/28 12:01:54;;;;;;;1999.90;999.90;;;22.70;93.10;;;;;;4864187;29;20088;-83
2022/10/28 12:04:32;;;;;;;1999.90;999.90;;;22.70;77.60;;;;;;4881101;29;20133;-84
2022/10/28 12:07:41;;;;;;;1999.90;999.90;;;22.80;85.60;;;;;;4880125;29;20052;-85
2022/10/28 12:10:27;;;;;;;1999.90;999.90;;;22.80;80.60;;;;;;4880256;29;20049;-84
2022/10/28 12:13:03;;;;;;;1999.90;999.90;;;22.80;77.70;;;;;;4880598;29;20053;-84
2022/10/28 12:15:54;;;;;;;1999.90;999.90;;;22.80;88.20;;;;;;4864112;29;20049;-84
2022/10/28 12:18:38;;;;;;;1999.90;999.90;;;22.80;80.30;;;;;;4880874;29;20113;-84
2022/10/28 12:21:44;;;;;;;1999.90;999.90;;;22.80;81.30;;;;;;4863559;29;20048;-84
2022/10/28 12:24:18;;;;;;;1999.90;999.90;;;22.80;89.40;;;;;;4861996;29;20072;-84
2022/10/28 12:26:56;;;;;;;1999.90;999.90;;;22.80;62.90;;;;;;4878122;29;20095;-84